Time;durP1;ratioP1;P1;durP2;ratioP2;P2;SDS_P1;SDS_P2;PMS_P1;PMS_P2;Temp;Humidity;BMP_temperature;BMP_pressure;BME280_temperature;BME280_humidity;BME280_pressure;Samples;Min_cycle;Max_cycle;Signal;HPM_P1;HPM_P2
2021/04/28 00:02:07;;;;;;;44.30;30.48;;;;;;;;;;4933183;29;20075;-70
2021/04/28 00:04:33;;;;;;;42.85;29.40;;;;;;;;;;4934032;29;20020;-70
2021/04/28 00:07:03;;;;;;;44.65;30.77;;;;;;;;;;4939911;29;20035;-67
2021/04/28 00:09:29;;;;;;;43.40;30.35;;;;;;;;;;4939876;29;20068;-70
2021/04/28 00:11:55;;;;;;;45.38;28.77;;;;;;;;;;4939681;29;20499;-71
2021/04/28 00:14:21;;;;;;;44.20;32.05;;;;;;;;;;4940020;29;20031;-70
2021/04/28 00:16:47;;;;;;;49.85;34.35;;;;;;;;;;4940073;29;20498;-67
2021/04/28 00:19:13;;;;;;;48.20;33.55;;;;;;;;;;4939657;29;20027;-67
2021/04/28 00:21:40;;;;;;;57.17;37.33;;;;;;;;;;4939530;29;20491;-70
2021/04/28 00:24:06;;;;;;;53.03;34.85;;;;;;;;;;4939613;29;20039;-67
2021/04/28 00:26:32;;;;;;;50.90;33.47;;;;;;;;;;4939781;29;20502;-69
2021/04/28 00:28:58;;;;;;;50.80;33.28;;;;;;;;;;4939935;29;20070;-69
2021/04/28 00:31:24;;;;;;;47.50;32.03;;;;;;;;;;4939845;29;20031;-70
2021/04/28 00:33:50;;;;;;;56.08;34.92;;;;;;;;;;4939711;29;20035;-72
2021/04/28 00:36:17;;;;;;;51.60;33.70;;;;;;;;;;4939533;29;20388;-70
2021/04/28 00:38:43;;;;;;;50.13;33.13;;;;;;;;;;4939682;29;20027;-70
2021/04/28 00:41:09;;;;;;;46.40;31.27;;;;;;;;;;4939485;29;20043;-70
2021/04/28 00:43:36;;;;;;;48.80;31.20;;;;;;;;;;4939464;29;20534;-70
2021/04/28 00:46:03;;;;;;;45.05;29.92;;;;;;;;;;4939433;29;20035;-70
2021/04/28 00:48:29;;;;;;;42.92;29.10;;;;;;;;;;4939547;29;20059;-70
2021/04/28 00:50:55;;;;;;;45.40;31.23;;;;;;;;;;4939419;29;20035;-70
2021/04/28 00:53:22;;;;;;;44.20;29.63;;;;;;;;;;4939298;29;20082;-69
2021/04/28 00:55:48;;;;;;;45.65;30.20;;;;;;;;;;4939618;29;20030;-69
2021/04/28 00:58:15;;;;;;;47.03;32.17;;;;;;;;;;4939346;29;20039;-70
2021/04/28 01:00:41;;;;;;;46.58;31.38;;;;;;;;;;4939414;29;20113;-70
2021/04/28 01:03:07;;;;;;;51.85;34.33;;;;;;;;;;4939447;29;20106;-68
2021/04/28 01:05:34;;;;;;;47.55;31.00;;;;;;;;;;4939657;29;20027;-70
2021/04/28 01:08:00;;;;;;;46.03;31.75;;;;;;;;;;4939249;29;20032;-69
2021/04/28 01:10:28;;;;;;;43.40;29.13;;;;;;;;;;4939613;29;20020;-70
2021/04/28 01:12:55;;;;;;;41.58;27.52;;;;;;;;;;4941417;29;20036;-70
2021/04/28 01:15:23;;;;;;;41.95;29.23;;;;;;;;;;4940767;29;20399;-70
2021/04/28 01:17:49;;;;;;;42.45;28.98;;;;;;;;;;4936180;29;20030;-70
2021/04/28 01:20:16;;;;;;;40.63;28.23;;;;;;;;;;4936348;29;20042;-69
2021/04/28 01:22:43;;;;;;;42.65;28.35;;;;;;;;;;4936044;29;20046;-69
2021/04/28 01:25:11;;;;;;;40.05;27.83;;;;;;;;;;4936415;29;20032;-69
2021/04/28 01:27:38;;;;;;;42.20;29.27;;;;;;;;;;4936285;29;20040;-70
2021/04/28 01:30:06;;;;;;;37.95;27.52;;;;;;;;;;4936109;29;20040;-70
2021/04/28 01:32:33;;;;;;;39.03;28.20;;;;;;;;;;4935944;29;20055;-70
2021/04/28 01:34:59;;;;;;;46.83;30.58;;;;;;;;;;4936189;29;20519;-71
2021/04/28 01:37:26;;;;;;;40.08;29.77;;;;;;;;;;4935945;29;20024;-70
2021/04/28 01:39:53;;;;;;;46.13;29.85;;;;;;;;;;4936239;29;20118;-70
2021/04/28 01:42:19;;;;;;;43.97;29.60;;;;;;;;;;4935857;29;20039;-70
2021/04/28 01:44:47;;;;;;;42.83;29.42;;;;;;;;;;4918620;29;20055;-69
2021/04/28 01:47:14;;;;;;;41.08;28.98;;;;;;;;;;4935947;29;20031;-71
2021/04/28 01:49:40;;;;;;;40.55;28.25;;;;;;;;;;4935913;29;20436;-70
2021/04/28 01:52:06;;;;;;;41.03;27.73;;;;;;;;;;4935123;29;20031;-68
2021/04/28 01:54:33;;;;;;;44.05;28.90;;;;;;;;;;4935622;29;20507;-70
2021/04/28 01:56:59;;;;;;;40.15;27.95;;;;;;;;;;4935689;29;20480;-71
2021/04/28 01:59:25;;;;;;;38.08;27.70;;;;;;;;;;4934849;29;20126;-70
2021/04/28 02:01:53;;;;;;;40.78;28.95;;;;;;;;;;4933645;29;20044;-70
2021/04/28 02:04:19;;;;;;;40.97;27.67;;;;;;;;;;4934089;29;20026;-70
2021/04/28 02:06:45;;;;;;;39.85;27.20;;;;;;;;;;4935323;29;20472;-71
2021/04/28 02:09:12;;;;;;;41.22;28.90;;;;;;;;;;4935550;29;20699;-67
2021/04/28 02:11:38;;;;;;;38.80;27.65;;;;;;;;;;4935443;29;20035;-70
2021/04/28 02:14:05;;;;;;;42.67;28.15;;;;;;;;;;4935267;29;20027;-70
2021/04/28 02:16:32;;;;;;;40.85;27.27;;;;;;;;;;4935307;29;20090;-70
2021/04/28 02:18:59;;;;;;;39.13;28.30;;;;;;;;;;4935177;29;20024;-71
2021/04/28 02:21:26;;;;;;;39.38;27.58;;;;;;;;;;4935091;29;20090;-67
2021/04/28 02:23:52;;;;;;;41.03;27.58;;;;;;;;;;4935042;29;20071;-70
2021/04/28 02:26:19;;;;;;;38.38;27.52;;;;;;;;;;4935111;29;20028;-70
2021/04/28 02:28:45;;;;;;;37.75;27.67;;;;;;;;;;4934907;29;20118;-68
2021/04/28 02:31:11;;;;;;;41.70;29.30;;;;;;;;;;4935142;29;20039;-67
2021/04/28 02:33:37;;;;;;;37.72;26.92;;;;;;;;;;4935008;29;20039;-70
2021/04/28 02:36:03;;;;;;;39.67;28.23;;;;;;;;;;4934763;29;20026;-70
2021/04/28 02:38:42;;;;;;;41.78;29.65;;;;;;;;;;4917912;29;20024;-71
2021/04/28 02:41:08;;;;;;;44.10;29.58;;;;;;;;;;4934538;29;20114;-71
2021/04/28 02:43:37;;;;;;;40.47;28.27;;;;;;;;;;4934763;29;20016;-71
2021/04/28 02:46:04;;;;;;;39.97;28.05;;;;;;;;;;4934716;29;20496;-65
2021/04/28 02:48:30;;;;;;;39.35;28.20;;;;;;;;;;4934716;29;20468;-70
2021/04/28 02:50:57;;;;;;;41.55;28.35;;;;;;;;;;4934724;29;20106;-70
2021/04/28 02:53:26;;;;;;;41.88;28.58;;;;;;;;;;4934356;29;20056;-69
2021/04/28 02:55:56;;;;;;;43.38;29.50;;;;;;;;;;4934480;29;20536;-70
2021/04/28 02:58:23;;;;;;;44.15;29.58;;;;;;;;;;4934444;29;20384;-69
2021/04/28 03:00:49;;;;;;;40.90;29.52;;;;;;;;;;4934636;29;20384;-69
2021/04/28 03:03:16;;;;;;;45.05;31.48;;;;;;;;;;4934291;29;20027;-69
2021/04/28 03:05:42;;;;;;;41.30;29.15;;;;;;;;;;4934691;29;20038;-70
2021/04/28 03:08:09;;;;;;;43.65;29.60;;;;;;;;;;4934541;29;20063;-70
2021/04/28 03:10:35;;;;;;;44.00;31.27;;;;;;;;;;4934211;29;20435;-70
2021/04/28 03:13:01;;;;;;;44.72;30.83;;;;;;;;;;4934312;29;20035;-71
2021/04/28 03:15:28;;;;;;;42.17;29.65;;;;;;;;;;4934346;29;20067;-71
2021/04/28 03:17:54;;;;;;;45.55;30.58;;;;;;;;;;4934069;29;20032;-70
2021/04/28 03:20:20;;;;;;;47.05;32.25;;;;;;;;;;4934105;29;20030;-70
2021/04/28 03:22:46;;;;;;;47.10;32.28;;;;;;;;;;4933950;29;20036;-70
2021/04/28 03:25:13;;;;;;;47.97;31.27;;;;;;;;;;4934095;29;20032;-70
2021/04/28 03:27:39;;;;;;;43.70;30.73;;;;;;;;;;4934147;29;20482;-70
2021/04/28 03:30:06;;;;;;;49.03;32.40;;;;;;;;;;4934194;29;20051;-70
2021/04/28 03:32:32;;;;;;;47.50;32.40;;;;;;;;;;4933815;29;20439;-70
2021/04/28 03:34:58;;;;;;;47.47;32.15;;;;;;;;;;4934048;29;20027;-70
2021/04/28 03:37:25;;;;;;;51.70;34.58;;;;;;;;;;4934122;29;20468;-69
2021/04/28 03:39:51;;;;;;;52.58;34.78;;;;;;;;;;4933245;29;20090;-70
2021/04/28 03:42:17;;;;;;;59.35;37.50;;;;;;;;;;4933709;29;20047;-70
2021/04/28 03:44:43;;;;;;;60.22;38.15;;;;;;;;;;4933654;29;20444;-69
2021/04/28 03:47:10;;;;;;;59.45;37.40;;;;;;;;;;4933491;29;20031;-72
2021/04/28 03:49:36;;;;;;;70.30;40.05;;;;;;;;;;4933708;29;20028;-70
2021/04/28 03:52:02;;;;;;;69.93;40.22;;;;;;;;;;4933039;29;20320;-71
2021/04/28 03:54:28;;;;;;;81.95;44.20;;;;;;;;;;4933401;29;20122;-70
2021/04/28 03:56:54;;;;;;;88.90;45.70;;;;;;;;;;4933824;29;20036;-70
2021/04/28 03:59:21;;;;;;;86.03;44.15;;;;;;;;;;4933619;29;20031;-71
2021/04/28 04:01:47;;;;;;;92.88;44.60;;;;;;;;;;4933443;29;20075;-68
2021/04/28 04:04:13;;;;;;;96.13;45.80;;;;;;;;;;4933682;29;20035;-70
2021/04/28 04:06:39;;;;;;;96.68;46.28;;;;;;;;;;4933676;29;20038;-70
2021/04/28 04:09:06;;;;;;;93.32;45.25;;;;;;;;;;4933751;29;20060;-70
2021/04/28 04:11:32;;;;;;;94.93;45.72;;;;;;;;;;4933514;29;20023;-71
2021/04/28 04:13:58;;;;;;;92.22;45.95;;;;;;;;;;4933443;29;20106;-70
2021/04/28 04:16:25;;;;;;;89.53;43.80;;;;;;;;;;4933515;29;20028;-71
2021/04/28 04:18:51;;;;;;;91.53;45.20;;;;;;;;;;4933595;29;20046;-71
2021/04/28 04:21:17;;;;;;;94.60;44.88;;;;;;;;;;4932971;29;20036;-71
2021/04/28 04:23:43;;;;;;;91.88;44.33;;;;;;;;;;4933387;29;20032;-69
2021/04/28 04:26:09;;;;;;;82.60;43.60;;;;;;;;;;4933213;29;20055;-70
2021/04/28 04:28:35;;;;;;;87.80;44.90;;;;;;;;;;4933380;29;20042;-71
2021/04/28 04:31:01;;;;;;;86.63;43.72;;;;;;;;;;4933473;29;20032;-70
2021/04/28 04:33:27;;;;;;;84.85;42.70;;;;;;;;;;4933322;29;20016;-68
2021/04/28 04:35:53;;;;;;;78.38;41.67;;;;;;;;;;4933322;29;20023;-68
2021/04/28 04:38:19;;;;;;;79.30;42.22;;;;;;;;;;4933615;29;20564;-69
2021/04/28 04:40:46;;;;;;;81.07;41.72;;;;;;;;;;4932966;29;20042;-70
2021/04/28 04:43:12;;;;;;;77.70;41.72;;;;;;;;;;4933172;29;20028;-68
2021/04/28 04:45:38;;;;;;;84.90;45.38;;;;;;;;;;4933268;29;20030;-68
2021/04/28 04:48:06;;;;;;;77.07;41.30;;;;;;;;;;4933071;29;20059;-67
2021/04/28 04:50:32;;;;;;;83.10;44.97;;;;;;;;;;4933041;29;20055;-69
2021/04/28 04:52:59;;;;;;;89.70;45.50;;;;;;;;;;4934664;29;20567;-67
2021/04/28 04:55:25;;;;;;;93.05;48.13;;;;;;;;;;4936653;29;20032;-68
2021/04/28 04:57:52;;;;;;;86.03;44.92;;;;;;;;;;4936709;29;20027;-66
2021/04/28 05:00:18;;;;;;;92.03;45.55;;;;;;;;;;4936749;29;20024;-68
2021/04/28 05:02:44;;;;;;;82.95;42.33;;;;;;;;;;4936504;29;20040;-69
2021/04/28 05:05:11;;;;;;;87.50;45.60;;;;;;;;;;4936531;29;20249;-68
2021/04/28 05:07:37;;;;;;;88.45;46.10;;;;;;;;;;4936557;29;20083;-68
2021/04/28 05:10:04;;;;;;;94.03;47.90;;;;;;;;;;4936541;29;20034;-66
2021/04/28 05:12:30;;;;;;;95.75;46.88;;;;;;;;;;4936370;29;20031;-69
2021/04/28 05:14:57;;;;;;;91.20;45.28;;;;;;;;;;4926775;29;20507;-69
2021/04/28 05:17:23;;;;;;;80.35;42.25;;;;;;;;;;4917395;29;20160;-63
2021/04/28 05:19:49;;;;;;;76.60;42.25;;;;;;;;;;4917426;29;20020;-71
2021/04/28 05:22:15;;;;;;;83.15;45.05;;;;;;;;;;4916829;29;20043;-66
2021/04/28 05:24:41;;;;;;;82.35;44.53;;;;;;;;;;4917056;29;20381;-68
2021/04/28 05:27:07;;;;;;;80.45;45.00;;;;;;;;;;4917225;29;20051;-70
2021/04/28 05:29:33;;;;;;;88.82;46.55;;;;;;;;;;4916078;29;20028;-70
2021/04/28 05:31:59;;;;;;;84.65;46.28;;;;;;;;;;4915716;29;20040;-71
2021/04/28 05:34:26;;;;;;;97.53;50.40;;;;;;;;;;4912097;29;20040;-70
2021/04/28 05:36:52;;;;;;;91.82;47.47;;;;;;;;;;4913258;29;20515;-73
2021/04/28 05:39:18;;;;;;;102.45;51.53;;;;;;;;;;4916002;29;20039;-72
2021/04/28 05:41:45;;;;;;;108.32;53.88;;;;;;;;;;4916513;29;20048;-69
2021/04/28 05:44:11;;;;;;;91.05;49.13;;;;;;;;;;4916634;29;20028;-69
2021/04/28 05:46:38;;;;;;;97.30;50.95;;;;;;;;;;4916561;29;20507;-68
2021/04/28 05:49:04;;;;;;;92.80;49.50;;;;;;;;;;4916670;29;20087;-67
2021/04/28 05:51:31;;;;;;;89.85;49.00;;;;;;;;;;4916640;29;20040;-69
2021/04/28 05:53:57;;;;;;;90.65;48.28;;;;;;;;;;4915941;29;20098;-69
2021/04/28 05:56:23;;;;;;;86.00;45.50;;;;;;;;;;4916559;29;20036;-67
2021/04/28 05:58:49;;;;;;;84.60;46.60;;;;;;;;;;4925731;29;20058;-69
2021/04/28 06:01:15;;;;;;;81.93;45.53;;;;;;;;;;4934620;29;20045;-69
2021/04/28 06:03:42;;;;;;;90.28;49.92;;;;;;;;;;4934207;28;20115;-70
2021/04/28 06:06:09;;;;;;;86.95;47.00;;;;;;;;;;4929430;29;20035;-69
2021/04/28 06:08:35;;;;;;;85.85;47.90;;;;;;;;;;4920974;29;20012;-64
2021/04/28 06:11:01;;;;;;;73.85;43.55;;;;;;;;;;4920343;29;20028;-68
2021/04/28 06:13:27;;;;;;;79.07;45.30;;;;;;;;;;4922286;29;20384;-69
2021/04/28 06:15:53;;;;;;;84.95;46.35;;;;;;;;;;4920261;29;20016;-69
2021/04/28 06:18:19;;;;;;;78.53;45.28;;;;;;;;;;4920788;29;20072;-70
2021/04/28 06:20:45;;;;;;;79.55;46.60;;;;;;;;;;4920183;29;20035;-66
2021/04/28 06:23:11;;;;;;;78.60;45.63;;;;;;;;;;4920445;29;20072;-66
2021/04/28 06:25:39;;;;;;;80.15;45.42;;;;;;;;;;4921490;29;20020;-68
2021/04/28 06:28:07;;;;;;;78.93;45.70;;;;;;;;;;4916629;29;20075;-67
2021/04/28 06:30:33;;;;;;;64.35;42.55;;;;;;;;;;4915130;29;20040;-69
2021/04/28 06:32:59;;;;;;;71.25;42.65;;;;;;;;;;4916430;29;20052;-70
2021/04/28 06:35:25;;;;;;;63.67;41.97;;;;;;;;;;4916307;29;20024;-68
2021/04/28 06:37:51;;;;;;;60.55;41.03;;;;;;;;;;4915575;29;20043;-68
2021/04/28 06:40:17;;;;;;;58.97;38.47;;;;;;;;;;4915602;29;20107;-66
2021/04/28 06:42:43;;;;;;;53.53;37.60;;;;;;;;;;4914343;29;20047;-68
2021/04/28 06:45:10;;;;;;;51.50;35.35;;;;;;;;;;4914104;29;20024;-63
2021/04/28 06:47:36;;;;;;;50.95;33.88;;;;;;;;;;4914165;29;20032;-70
2021/04/28 06:50:03;;;;;;;47.83;33.63;;;;;;;;;;4914329;29;20512;-68
2021/04/28 06:52:29;;;;;;;41.95;30.90;;;;;;;;;;4913717;29;20039;-70
2021/04/28 06:54:55;;;;;;;47.80;32.85;;;;;;;;;;4914047;29;20050;-68
2021/04/28 06:57:21;;;;;;;40.47;27.75;;;;;;;;;;4928036;29;20023;-70
2021/04/28 06:59:47;;;;;;;37.15;25.63;;;;;;;;;;4933190;29;20047;-74
2021/04/28 07:02:13;;;;;;;28.77;21.67;;;;;;;;;;4929734;29;20042;-66
2021/04/28 07:04:39;;;;;;;26.83;17.80;;;;;;;;;;4925321;29;20028;-71
2021/04/28 07:07:06;;;;;;;25.55;16.65;;;;;;;;;;4927279;29;20095;-61
2021/04/28 07:09:32;;;;;;;20.48;14.07;;;;;;;;;;4932259;29;20020;-69
2021/04/28 07:11:58;;;;;;;21.38;14.85;;;;;;;;;;4932149;29;20430;-74
2021/04/28 07:14:24;;;;;;;19.23;12.82;;;;;;;;;;4930344;29;20056;-66
2021/04/28 07:16:50;;;;;;;18.23;11.57;;;;;;;;;;4931241;29;20481;-71
2021/04/28 07:19:16;;;;;;;17.73;9.65;;;;;;;;;;4933675;29;20362;-74
2021/04/28 07:21:42;;;;;;;16.92;8.73;;;;;;;;;;4933047;29;20472;-74
2021/04/28 07:24:08;;;;;;;13.88;8.05;;;;;;;;;;4933152;29;20043;-66
2021/04/28 07:26:35;;;;;;;13.60;8.57;;;;;;;;;;4915892;29;20399;-72
2021/04/28 07:29:02;;;;;;;14.50;8.43;;;;;;;;;;4933892;29;20367;-72
2021/04/28 07:31:29;;;;;;;16.13;8.93;;;;;;;;;;4933359;29;20103;-68
2021/04/28 07:33:55;;;;;;;15.32;8.88;;;;;;;;;;4933433;29;20089;-75
2021/04/28 07:36:21;;;;;;;14.85;8.27;;;;;;;;;;4933046;29;20433;-66
2021/04/28 07:38:47;;;;;;;13.60;8.63;;;;;;;;;;4933356;29;20027;-71
2021/04/28 07:41:14;;;;;;;15.27;7.93;;;;;;;;;;4933044;29;20067;-71
2021/04/28 07:43:40;;;;;;;11.13;8.27;;;;;;;;;;4933377;29;20395;-67
2021/04/28 07:46:06;;;;;;;13.20;7.97;;;;;;;;;;4928002;29;20030;-72
2021/04/28 07:48:32;;;;;;;13.55;8.40;;;;;;;;;;4921279;29;20444;-73
2021/04/28 07:51:00;;;;;;;13.30;8.60;;;;;;;;;;4933080;29;20083;-67
2021/04/28 07:53:27;;;;;;;10.98;7.75;;;;;;;;;;4932112;29;20044;-68
2021/04/28 07:55:53;;;;;;;9.75;7.72;;;;;;;;;;4932739;29;20392;-65
2021/04/28 07:58:19;;;;;;;11.55;7.90;;;;;;;;;;4932944;29;20024;-65
2021/04/28 08:00:45;;;;;;;10.93;8.35;;;;;;;;;;4932206;29;20504;-70
2021/04/28 08:03:12;;;;;;;13.23;8.48;;;;;;;;;;4932715;29;20484;-67
2021/04/28 08:05:38;;;;;;;13.55;8.02;;;;;;;;;;4932731;29;20024;-64
2021/04/28 08:08:05;;;;;;;13.07;8.07;;;;;;;;;;4932127;29;20365;-73
2021/04/28 08:10:31;;;;;;;13.70;8.30;;;;;;;;;;4923821;29;20416;-74
2021/04/28 08:12:57;;;;;;;15.13;7.97;;;;;;;;;;4932395;29;20019;-72
2021/04/28 08:15:23;;;;;;;11.00;7.32;;;;;;;;;;4913672;29;20079;-69
2021/04/28 08:17:49;;;;;;;12.18;7.80;;;;;;;;;;4912893;29;20032;-72
2021/04/28 08:20:16;;;;;;;11.65;7.57;;;;;;;;;;4923993;29;20038;-73
2021/04/28 08:22:42;;;;;;;12.45;7.30;;;;;;;;;;4928324;29;20465;-66
2021/04/28 08:25:10;;;;;;;10.15;6.60;;;;;;;;;;4895101;29;20042;-68
2021/04/28 08:27:37;;;;;;;11.85;6.95;;;;;;;;;;4917562;29;20027;-72
2021/04/28 08:30:07;;;;;;;9.27;6.78;;;;;;;;;;4915205;29;20036;-72
2021/04/28 08:32:33;;;;;;;10.50;6.30;;;;;;;;;;4916643;29;20059;-75
2021/04/28 08:34:59;;;;;;;12.80;6.45;;;;;;;;;;4915623;29;20035;-73
2021/04/28 08:37:25;;;;;;;11.70;6.05;;;;;;;;;;4915528;29;20031;-74
2021/04/28 08:39:51;;;;;;;9.40;6.00;;;;;;;;;;4916434;29;20088;-74
2021/04/28 08:42:18;;;;;;;9.57;6.28;;;;;;;;;;4914972;29;20071;-73
2021/04/28 08:44:44;;;;;;;7.13;5.32;;;;;;;;;;4914214;29;20032;-69
2021/04/28 08:47:10;;;;;;;11.25;6.93;;;;;;;;;;4916942;29;20067;-60
2021/04/28 08:49:37;;;;;;;14.60;7.10;;;;;;;;;;4898357;29;20373;-61
2021/04/28 08:52:04;;;;;;;9.00;6.80;;;;;;;;;;4914964;29;20035;-60
2021/04/28 08:54:30;;;;;;;9.30;6.88;;;;;;;;;;4917164;29;20036;-63
2021/04/28 08:56:58;;;;;;;12.32;7.10;;;;;;;;;;4916654;29;20032;-63
2021/04/28 08:59:24;;;;;;;9.60;6.68;;;;;;;;;;4916842;29;20020;-68
2021/04/28 09:01:51;;;;;;;8.48;6.85;;;;;;;;;;4902261;29;20393;-72
2021/04/28 09:04:18;;;;;;;8.82;7.20;;;;;;;;;;4916560;29;20026;-75
2021/04/28 09:06:44;;;;;;;10.80;6.63;;;;;;;;;;4916624;29;20127;-70
2021/04/28 09:09:14;;;;;;;8.13;6.20;;;;;;;;;;4916963;29;20040;-75
2021/04/28 09:11:59;;;;;;;9.52;7.05;;;;;;;;;;4916723;29;20024;-73
2021/04/28 09:14:26;;;;;;;10.30;6.53;;;;;;;;;;4916333;29;20028;-72
2021/04/28 09:16:55;;;;;;;9.00;6.70;;;;;;;;;;4915579;29;20035;-70
2021/04/28 09:19:22;;;;;;;8.90;5.95;;;;;;;;;;4916830;29;20035;-70
2021/04/28 09:21:48;;;;;;;9.25;6.00;;;;;;;;;;4916035;29;20135;-72
2021/04/28 09:24:16;;;;;;;8.98;6.40;;;;;;;;;;4899649;29;20126;-72
2021/04/28 09:26:42;;;;;;;9.40;6.43;;;;;;;;;;4915723;29;20032;-74
2021/04/28 09:29:08;;;;;;;10.65;5.80;;;;;;;;;;4910270;29;20057;-64
2021/04/28 09:31:35;;;;;;;14.10;5.90;;;;;;;;;;4913743;29;20401;-63
2021/04/28 09:34:01;;;;;;;10.77;6.10;;;;;;;;;;4916036;29;20028;-61
2021/04/28 09:36:28;;;;;;;9.55;5.75;;;;;;;;;;4915448;29;20582;-70
2021/04/28 09:39:02;;;;;;;11.20;6.05;;;;;;;;;;4914832;29;20164;-68
2021/04/28 09:41:29;;;;;;;8.82;6.03;;;;;;;;;;4898097;29;20036;-66
2021/04/28 09:43:55;;;;;;;10.88;5.70;;;;;;;;;;4914556;29;20115;-67
2021/04/28 09:46:21;;;;;;;9.23;5.90;;;;;;;;;;4896719;29;20044;-65
2021/04/28 09:49:09;;;;;;;6.97;5.03;;;;;;;;;;4913789;29;20042;-62
2021/04/28 09:51:36;;;;;;;7.85;5.95;;;;;;;;;;4914014;29;20367;-69
2021/04/28 09:54:12;;;;;;;7.35;5.82;;;;;;;;;;4914837;29;20063;-62
2021/04/28 09:56:39;;;;;;;6.43;5.03;;;;;;;;;;4911916;29;20107;-68
2021/04/28 09:59:05;;;;;;;11.07;5.25;;;;;;;;;;4915980;29;20405;-69
2021/04/28 10:01:33;;;;;;;10.45;5.20;;;;;;;;;;4914375;29;20039;-69
2021/04/28 10:04:00;;;;;;;9.85;5.15;;;;;;;;;;4913837;29;20472;-65
2021/04/28 10:06:46;;;;;;;11.85;5.82;;;;;;;;;;4914461;29;20043;-66
2021/04/28 10:09:30;;;;;;;12.77;5.80;;;;;;;;;;4914904;29;20861;-62
2021/04/28 10:12:00;;;;;;;9.25;5.00;;;;;;;;;;4912492;29;20024;-64
2021/04/28 10:14:28;;;;;;;6.72;4.45;;;;;;;;;;4914717;29;20469;-63
2021/04/28 10:16:55;;;;;;;6.50;4.82;;;;;;;;;;4915610;29;20080;-64
2021/04/28 10:19:23;;;;;;;10.25;4.80;;;;;;;;;;4916058;29;20036;-66
2021/04/28 10:21:50;;;;;;;7.18;4.63;;;;;;;;;;4915939;29;20047;-65
2021/04/28 10:24:16;;;;;;;8.10;5.20;;;;;;;;;;4915333;29;20031;-68
2021/04/28 10:26:43;;;;;;;8.25;4.75;;;;;;;;;;4914881;29;20537;-67
2021/04/28 10:29:09;;;;;;;10.10;5.20;;;;;;;;;;4915994;29;20036;-66
2021/04/28 10:31:37;;;;;;;7.03;5.10;;;;;;;;;;4915639;29;20032;-65
2021/04/28 10:34:04;;;;;;;10.90;5.35;;;;;;;;;;4915820;29;20028;-63
2021/04/28 10:36:30;;;;;;;7.82;5.07;;;;;;;;;;4915811;29;20036;-67
2021/04/28 10:38:57;;;;;;;8.85;4.70;;;;;;;;;;4915955;29;20024;-66
2021/04/28 10:41:42;;;;;;;7.22;4.97;;;;;;;;;;4915277;29;20042;-66
2021/04/28 10:44:28;;;;;;;9.43;4.78;;;;;;;;;;4915562;29;20040;-66
2021/04/28 10:47:13;;;;;;;11.82;4.80;;;;;;;;;;4915100;29;20515;-70
2021/04/28 10:49:58;;;;;;;6.40;4.68;;;;;;;;;;4915740;29;20032;-69
2021/04/28 10:52:31;;;;;;;6.90;4.78;;;;;;;;;;4915159;29;20052;-66
2021/04/28 10:54:57;;;;;;;8.45;4.40;;;;;;;;;;4914884;29;20079;-62
2021/04/28 10:57:49;;;;;;;7.78;4.90;;;;;;;;;;4915238;29;20492;-66
2021/04/28 11:00:21;;;;;;;15.10;5.32;;;;;;;;;;4912503;29;20484;-65
2021/04/28 11:02:47;;;;;;;6.72;4.57;;;;;;;;;;4915144;29;20119;-63
2021/04/28 11:05:30;;;;;;;8.40;5.47;;;;;;;;;;4913877;29;20031;-70
2021/04/28 11:07:56;;;;;;;;;;;;;;;;;;4915012;29;20036;-69
2021/04/28 11:10:30;;;;;;;12.80;5.03;;;;;;;;;;4906021;29;20430;-65
2021/04/28 11:13:09;;;;;;;7.40;4.85;;;;;;;;;;4920488;29;20039;-71
2021/04/28 11:15:44;;;;;;;7.18;4.68;;;;;;;;;;4913032;29;20024;-69
2021/04/28 11:18:29;;;;;;;9.18;5.28;;;;;;;;;;4914917;29;20381;-71
2021/04/28 11:21:11;;;;;;;9.18;4.80;;;;;;;;;;4914411;29;20029;-74
2021/04/28 11:23:37;;;;;;;9.25;5.00;;;;;;;;;;4915367;29;20497;-71
2021/04/28 11:26:22;;;;;;;9.52;5.35;;;;;;;;;;4913963;29;20056;-69
2021/04/28 11:28:55;;;;;;;9.05;5.32;;;;;;;;;;4914202;29;20068;-63
2021/04/28 11:31:24;;;;;;;9.32;5.18;;;;;;;;;;4914785;29;20028;-69
2021/04/28 11:33:51;;;;;;;9.32;5.25;;;;;;;;;;4914598;29;20107;-70
2021/04/28 11:36:18;;;;;;;10.70;5.00;;;;;;;;;;4913741;29;20028;-64
2021/04/28 11:38:46;;;;;;;7.05;4.68;;;;;;;;;;4914628;29;20038;-65
2021/04/28 11:41:12;;;;;;;8.65;5.00;;;;;;;;;;4914876;29;20457;-63
2021/04/28 11:43:45;;;;;;;8.98;5.47;;;;;;;;;;4914232;29;20040;-68
2021/04/28 11:46:22;;;;;;;8.32;5.10;;;;;;;;;;4913703;29;20047;-64
2021/04/28 11:48:49;;;;;;;7.28;4.82;;;;;;;;;;4914654;29;20035;-66
2021/04/28 11:51:17;;;;;;;7.53;5.03;;;;;;;;;;4914112;29;20371;-68
2021/04/28 11:53:53;;;;;;;9.40;4.78;;;;;;;;;;4914132;29;20103;-66
2021/04/28 11:56:30;;;;;;;12.57;5.25;;;;;;;;;;4914190;29;20028;-65
2021/04/28 11:58:57;;;;;;;8.63;5.53;;;;;;;;;;4913590;29;20035;-66
2021/04/28 12:01:26;;;;;;;7.97;5.10;;;;;;;;;;4913917;29;20040;-69
2021/04/28 12:03:52;;;;;;;10.75;5.43;;;;;;;;;;4913387;29;20024;-66
2021/04/28 12:06:37;;;;;;;10.25;5.13;;;;;;;;;;4912203;29;20103;-66
2021/04/28 12:09:22;;;;;;;12.00;5.15;;;;;;;;;;4913961;29;20039;-68
2021/04/28 12:11:48;;;;;;;7.50;5.28;;;;;;;;;;4914162;29;20350;-68
2021/04/28 12:14:23;;;;;;;12.25;5.53;;;;;;;;;;4910476;29;20031;-68
2021/04/28 12:16:53;;;;;;;8.30;5.43;;;;;;;;;;4906676;29;20020;-62
2021/04/28 12:19:19;;;;;;;9.20;5.32;;;;;;;;;;4912971;29;20043;-65
2021/04/28 12:21:52;;;;;;;9.05;5.50;;;;;;;;;;4913850;29;20036;-66
2021/04/28 12:24:31;;;;;;;10.40;5.60;;;;;;;;;;4913708;29;20096;-67
2021/04/28 12:27:08;;;;;;;9.77;5.97;;;;;;;;;;4897300;29;20084;-67
2021/04/28 12:29:36;;;;;;;9.35;6.00;;;;;;;;;;4892567;29;20021;-67
2021/04/28 12:32:02;;;;;;;9.40;5.68;;;;;;;;;;4894505;29;20084;-63
2021/04/28 12:34:28;;;;;;;8.15;5.82;;;;;;;;;;4892726;29;20077;-68
2021/04/28 12:36:54;;;;;;;9.48;6.00;;;;;;;;;;4894406;29;20052;-64
2021/04/28 12:39:25;;;;;;;11.88;5.97;;;;;;;;;;4895012;29;20738;-64
2021/04/28 12:41:51;;;;;;;10.77;6.20;;;;;;;;;;4895251;29;20135;-61
2021/04/28 12:44:17;;;;;;;10.00;6.30;;;;;;;;;;4895097;29;20029;-63
2021/04/28 12:46:45;;;;;;;10.32;5.80;;;;;;;;;;4894367;29;20856;-65
2021/04/28 12:49:11;;;;;;;13.82;5.88;;;;;;;;;;4894902;29;20029;-63
2021/04/28 12:51:45;;;;;;;12.07;6.10;;;;;;;;;;4897514;29;20084;-68
2021/04/28 12:54:12;;;;;;;11.38;6.60;;;;;;;;;;4930045;29;20048;-65
2021/04/28 12:56:42;;;;;;;8.82;5.82;;;;;;;;;;4932321;29;20488;-63
2021/04/28 12:59:15;;;;;;;14.05;5.78;;;;;;;;;;4932151;29;20031;-61
2021/04/28 13:01:41;;;;;;;10.07;5.95;;;;;;;;;;4932602;29;20513;-63
2021/04/28 13:04:17;;;;;;;8.52;6.05;;;;;;;;;;4931110;29;20139;-62
2021/04/28 13:06:43;;;;;;;12.27;6.15;;;;;;;;;;4930628;29;20034;-65
2021/04/28 13:09:14;;;;;;;11.35;5.70;;;;;;;;;;4929808;29;20016;-61
2021/04/28 13:11:44;;;;;;;7.82;5.43;;;;;;;;;;4932307;29;20392;-64
2021/04/28 13:14:16;;;;;;;10.30;5.63;;;;;;;;;;4916847;29;20457;-62
2021/04/28 13:16:56;;;;;;;9.90;5.60;;;;;;;;;;4930644;29;20044;-61
2021/04/28 13:19:28;;;;;;;9.15;6.00;;;;;;;;;;4935894;29;20067;-65
2021/04/28 13:21:54;;;;;;;;;;;;;;;;;;4935174;29;20046;-65
2021/04/28 13:24:22;;;;;;;10.88;5.78;;;;;;;;;;4935105;29;19914;-66
2021/04/28 13:27:00;;;;;;;9.13;6.35;;;;;;;;;;4933505;29;20112;-69
2021/04/28 13:29:27;;;;;;;10.45;5.95;;;;;;;;;;4898057;29;20039;-68
2021/04/28 13:31:53;;;;;;;9.88;6.07;;;;;;;;;;4906053;29;20038;-66
2021/04/28 13:34:26;;;;;;;9.23;6.18;;;;;;;;;;4935364;29;20032;-68
2021/04/28 13:36:53;;;;;;;12.48;6.57;;;;;;;;;;4932128;29;20023;-66
2021/04/28 13:39:25;;;;;;;12.52;6.25;;;;;;;;;;4935256;29;20028;-70
2021/04/28 13:41:59;;;;;;;13.05;6.72;;;;;;;;;;4931307;29;20119;-66
2021/04/28 13:44:26;;;;;;;12.15;5.38;;;;;;;;;;4924081;29;20028;-69
2021/04/28 13:46:54;;;;;;;9.10;6.20;;;;;;;;;;4898711;29;20193;-68
2021/04/28 13:49:20;;;;;;;9.70;5.72;;;;;;;;;;4916557;29;20021;-70
2021/04/28 13:51:51;;;;;;;8.98;5.80;;;;;;;;;;4916445;29;20503;-67
2021/04/28 13:54:17;;;;;;;8.60;5.53;;;;;;;;;;4916772;29;20078;-66
2021/04/28 13:56:44;;;;;;;8.23;5.22;;;;;;;;;;4916120;29;20062;-67
2021/04/28 13:59:10;;;;;;;9.32;5.65;;;;;;;;;;4916475;29;20414;-70
2021/04/28 14:01:36;;;;;;;16.58;6.43;;;;;;;;;;4916064;29;20068;-66
2021/04/28 14:04:02;;;;;;;9.85;6.50;;;;;;;;;;4916288;29;20091;-64
2021/04/28 14:06:28;;;;;;;9.82;6.30;;;;;;;;;;4916395;29;20032;-66
2021/04/28 14:08:54;;;;;;;11.15;6.55;;;;;;;;;;4916010;29;20024;-65
2021/04/28 14:11:21;;;;;;;9.02;6.30;;;;;;;;;;4916380;29;20087;-63
2021/04/28 14:13:47;;;;;;;10.23;6.03;;;;;;;;;;4916354;29;20366;-66
2021/04/28 14:16:14;;;;;;;11.68;6.40;;;;;;;;;;4915635;29;20047;-68
2021/04/28 14:18:40;;;;;;;9.25;6.28;;;;;;;;;;4915645;29;20051;-67
2021/04/28 14:21:06;;;;;;;9.65;5.95;;;;;;;;;;4914728;29;20028;-67
2021/04/28 14:23:32;;;;;;;10.65;5.53;;;;;;;;;;4915784;29;20055;-63
2021/04/28 14:25:58;;;;;;;9.10;6.18;;;;;;;;;;4915315;29;20039;-68
2021/04/28 14:28:24;;;;;;;14.15;7.28;;;;;;;;;;4915858;29;20066;-68
2021/04/28 14:30:50;;;;;;;12.32;6.75;;;;;;;;;;4915997;29;20080;-66